Time;durP1;ratioP1;P1;durP2;ratioP2;P2;SDS_P1;SDS_P2;PMS_P1;PMS_P2;Temp;Humidity;BMP_temperature;BMP_pressure;BME280_temperature;BME280_humidity;BME280_pressure;Samples;Min_cycle;Max_cycle;Signal;HPM_P1;HPM_P2
2021/05/16 00:01:16;;;;;;;16.30;8.10;;;384.30;2329.60;;;;;;5080702;28;20035;-74
2021/05/16 00:03:42;;;;;;;11.63;6.20;;;384.30;2329.60;;;;;;5071270;28;20032;-73
2021/05/16 00:06:08;;;;;;;10.52;5.07;;;384.20;2329.60;;;;;;5078401;28;20395;-68
2021/05/16 00:08:34;;;;;;;7.90;4.57;;;384.20;2329.60;;;;;;5071455;28;20101;-68
2021/05/16 00:11:01;;;;;;;7.60;4.50;;;384.10;2329.60;;;;;;5078768;28;20020;-68
2021/05/16 00:13:27;;;;;;;9.85;4.47;;;384.10;2329.60;;;;;;5087025;28;20022;-67
2021/05/16 00:15:53;;;;;;;8.40;4.40;;;359.30;2329.60;;;;;;5086358;28;20028;-68
2021/05/16 00:18:19;;;;;;;8.27;4.35;;;359.30;2329.60;;;;;;5086437;28;20636;-69
2021/05/16 00:20:46;;;;;;;7.30;3.88;;;359.30;2329.60;;;;;;5086117;28;20111;-68
2021/05/16 00:23:11;;;;;;;10.15;4.50;;;359.30;2329.60;;;;;;5081208;28;20475;-67
2021/05/16 00:25:37;;;;;;;7.90;4.50;;;359.20;2329.60;;;;;;5086506;28;20035;-67
2021/05/16 00:28:04;;;;;;;7.47;4.15;;;359.20;2329.60;;;;;;5083180;28;20024;-68
2021/05/16 00:30:30;;;;;;;9.05;4.50;;;359.10;2329.60;;;;;;5086066;28;20024;-68
2021/05/16 00:32:57;;;;;;;17.80;10.43;;;359.10;2329.60;;;;;;5089171;28;20512;-66
2021/05/16 00:35:27;;;;;;;22.48;12.80;;;359.10;2329.60;;;;;;5082433;28;20514;-68
2021/05/16 00:37:53;;;;;;;32.20;19.13;;;359.10;2329.60;;;;;;5080147;28;20406;-70
2021/05/16 00:40:19;;;;;;;157.18;84.88;;;359.00;2329.60;;;;;;5080405;28;20032;-72
2021/05/16 00:42:45;;;;;;;30.45;17.63;;;359.00;2329.60;;;;;;5086070;28;20035;-72
2021/05/16 00:45:18;;;;;;;8.43;5.50;;;359.00;2329.60;;;;;;5083270;28;20102;-68
2021/05/16 00:47:52;;;;;;;50.15;26.73;;;358.90;2329.60;;;;;;5084633;28;20085;-69
2021/05/16 00:50:20;;;;;;;20.00;11.48;;;358.80;2329.60;;;;;;5083047;28;20012;-69
2021/05/16 00:52:46;;;;;;;51.70;28.10;;;358.70;2329.60;;;;;;5085149;28;20095;-68
2021/05/16 00:55:13;;;;;;;78.00;44.03;;;358.60;2329.60;;;;;;5082736;28;20023;-70
2021/05/16 00:57:40;;;;;;;18.55;11.65;;;358.40;2329.60;;;;;;5070948;28;20554;-68
2021/05/16 01:00:09;;;;;;;18.77;12.65;;;333.60;2329.60;;;;;;5070961;28;20029;-68
2021/05/16 01:02:36;;;;;;;15.45;8.45;;;333.60;2329.60;;;;;;5071258;28;20077;-68
2021/05/16 01:05:03;;;;;;;13.48;7.20;;;333.50;2329.60;;;;;;5074250;28;20483;-68
2021/05/16 01:07:29;;;;;;;27.95;17.65;;;333.50;2329.60;;;;;;5074423;28;20020;-68
2021/05/16 01:09:55;;;;;;;14.18;9.65;;;333.60;2329.60;;;;;;5082234;28;20031;-69
2021/05/16 01:12:28;;;;;;;18.20;12.75;;;333.60;2329.60;;;;;;5073669;28;20099;-72
2021/05/16 01:14:57;;;;;;;13.63;9.38;;;333.40;2329.60;;;;;;5073562;28;20009;-68
2021/05/16 01:17:23;;;;;;;11.38;6.35;;;333.40;2329.60;;;;;;5074502;28;20021;-68
2021/05/16 01:19:48;;;;;;;9.07;5.90;;;333.30;2329.60;;;;;;5074454;28;20024;-72
2021/05/16 01:22:14;;;;;;;9.10;5.35;;;333.20;2329.60;;;;;;5074165;28;20035;-72
2021/05/16 01:24:43;;;;;;;10.20;5.50;;;333.20;2329.60;;;;;;5074051;28;20078;-70
2021/05/16 01:27:10;;;;;;;8.32;5.40;;;333.10;2329.60;;;;;;5079355;28;20030;-69
2021/05/16 01:29:36;;;;;;;8.40;5.40;;;333.10;2329.60;;;;;;5079249;28;20222;-69
2021/05/16 01:32:02;;;;;;;7.55;5.40;;;333.20;2329.60;;;;;;5073746;28;20027;-69
2021/05/16 01:34:28;;;;;;;7.53;4.80;;;333.20;2329.60;;;;;;5074322;28;20048;-69
2021/05/16 01:36:54;;;;;;;8.68;4.80;;;333.20;2329.60;;;;;;5074209;28;20475;-72
2021/05/16 01:39:19;;;;;;;6.97;4.47;;;333.20;2329.60;;;;;;5073872;28;20035;-72
2021/05/16 01:41:45;;;;;;;6.97;4.70;;;333.30;2329.60;;;;;;5073819;28;20086;-69
2021/05/16 01:44:13;;;;;;;10.10;4.82;;;333.30;2329.60;;;;;;5073987;28;20055;-72
2021/05/16 01:46:43;;;;;;;6.68;4.80;;;333.20;2329.60;;;;;;5073329;28;20120;-72
2021/05/16 01:49:09;;;;;;;7.53;4.80;;;333.10;2329.60;;;;;;5073731;28;20008;-70
2021/05/16 01:51:35;;;;;;;6.95;5.40;;;333.20;2329.60;;;;;;5073661;28;20025;-70
2021/05/16 01:54:01;;;;;;;8.07;4.78;;;333.30;2329.60;;;;;;5074102;28;20027;-69
2021/05/16 01:56:28;;;;;;;8.55;4.78;;;333.40;2329.60;;;;;;5073624;28;20498;-69
2021/05/16 01:58:56;;;;;;;8.73;4.70;;;333.40;2329.60;;;;;;5073582;28;20028;-70
2021/05/16 02:01:23;;;;;;;7.68;5.05;;;333.40;2329.60;;;;;;5073342;28;20372;-70
2021/05/16 02:03:49;;;;;;;7.97;4.63;;;333.40;2329.60;;;;;;5073284;28;20031;-69
2021/05/16 02:06:16;;;;;;;7.00;4.20;;;333.50;2329.60;;;;;;5072212;28;20399;-69
2021/05/16 02:08:43;;;;;;;7.60;4.63;;;333.40;2329.60;;;;;;5073317;28;20020;-69
2021/05/16 02:11:09;;;;;;;7.85;4.50;;;333.40;2329.60;;;;;;5071830;28;20474;-69
2021/05/16 02:13:49;;;;;;;7.82;4.53;;;333.50;2329.60;;;;;;5073501;28;20111;-70
2021/05/16 02:16:17;;;;;;;7.10;4.73;;;333.50;2329.60;;;;;;5072293;28;20028;-69
2021/05/16 02:18:46;;;;;;;6.25;4.50;;;333.60;2329.60;;;;;;5072058;28;20256;-71
2021/05/16 02:21:11;;;;;;;7.45;4.40;;;333.60;2329.60;;;;;;5073845;28;20040;-75
2021/05/16 02:23:39;;;;;;;6.80;4.60;;;333.60;2329.60;;;;;;5073399;28;20500;-69
2021/05/16 02:26:08;;;;;;;6.32;4.15;;;333.60;2329.60;;;;;;5073305;28;20020;-70
2021/05/16 02:28:34;;;;;;;6.72;4.30;;;333.60;2329.60;;;;;;5071766;28;20028;-68
2021/05/16 02:31:08;;;;;;;7.40;4.20;;;333.60;2329.60;;;;;;5071727;28;20029;-69
2021/05/16 02:33:34;;;;;;;8.43;4.60;;;333.50;2329.60;;;;;;5072798;28;20463;-69
2021/05/16 02:35:59;;;;;;;7.45;4.40;;;333.50;2329.60;;;;;;5072665;28;20107;-70
2021/05/16 02:38:25;;;;;;;7.05;4.35;;;333.40;2329.60;;;;;;5072701;28;20024;-68
2021/05/16 02:40:51;;;;;;;9.77;4.90;;;333.40;2329.60;;;;;;5073015;28;20028;-69
2021/05/16 02:43:16;;;;;;;6.90;4.70;;;333.20;2329.60;;;;;;5072872;28;20029;-69
2021/05/16 02:46:09;;;;;;;8.10;4.55;;;333.00;2329.60;;;;;;5072349;28;20444;-69
2021/05/16 02:48:35;;;;;;;9.63;4.97;;;333.00;2329.60;;;;;;5072305;28;20111;-69
2021/05/16 02:51:01;;;;;;;15.07;7.22;;;332.90;2329.60;;;;;;5072477;28;20105;-69
2021/05/16 02:53:27;;;;;;;18.23;11.05;;;332.80;2329.60;;;;;;5072285;28;20378;-69
2021/05/16 02:55:52;;;;;;;14.73;7.88;;;308.00;2304.00;;;;;;5072231;28;20032;-69
2021/05/16 02:58:18;;;;;;;12.55;6.28;;;307.90;2304.00;;;;;;5072181;28;20035;-69
2021/05/16 03:00:44;;;;;;;9.35;5.45;;;307.90;2304.00;;;;;;5072291;28;20544;-72
2021/05/16 03:03:09;;;;;;;7.15;4.40;;;307.80;2304.00;;;;;;5072255;28;20024;-73
2021/05/16 03:05:35;;;;;;;6.55;4.57;;;307.80;2304.00;;;;;;5071863;28;20024;-72
2021/05/16 03:08:02;;;;;;;7.75;4.45;;;307.80;2304.00;;;;;;5072264;28;20086;-69
2021/05/16 03:10:27;;;;;;;6.07;4.50;;;307.80;2304.00;;;;;;5071157;28;20044;-69
2021/05/16 03:12:53;;;;;;;6.95;4.28;;;307.80;2304.00;;;;;;5061479;28;20048;-68
2021/05/16 03:15:19;;;;;;;6.57;4.30;;;307.90;2304.00;;;;;;5071745;28;20433;-68
2021/05/16 03:17:45;;;;;;;6.18;4.28;;;308.00;2304.00;;;;;;5066350;28;20061;-68
2021/05/16 03:20:12;;;;;;;6.88;4.40;;;308.00;2304.00;;;;;;5065054;28;20111;-69
2021/05/16 03:22:38;;;;;;;6.50;4.60;;;308.00;2304.00;;;;;;5072162;28;20039;-70
2021/05/16 03:25:05;;;;;;;7.97;4.25;;;308.00;2304.00;;;;;;5071457;28;20024;-70
2021/05/16 03:27:31;;;;;;;8.40;4.20;;;307.90;2304.00;;;;;;5071760;28;20028;-73
2021/05/16 03:29:56;;;;;;;6.65;4.50;;;307.90;2304.00;;;;;;5071475;28;20036;-73
2021/05/16 03:32:23;;;;;;;7.85;4.28;;;307.90;2304.00;;;;;;5063510;28;20028;-69
2021/05/16 03:34:49;;;;;;;7.88;4.10;;;307.90;2304.00;;;;;;5071851;28;20509;-70
2021/05/16 03:37:14;;;;;;;6.22;4.05;;;307.90;2304.00;;;;;;5072106;28;20028;-69
2021/05/16 03:39:40;;;;;;;8.45;4.10;;;308.00;2304.00;;;;;;5071704;28;20360;-69
2021/05/16 03:42:07;;;;;;;6.07;3.80;;;308.00;2304.00;;;;;;5072222;28;20028;-69
2021/05/16 03:44:33;;;;;;;6.00;3.50;;;308.10;2304.00;;;;;;5071665;28;20490;-69
2021/05/16 03:47:00;;;;;;;5.75;3.67;;;332.80;2329.60;;;;;;5071763;28;20044;-68
2021/05/16 03:49:25;;;;;;;6.82;3.78;;;332.90;2329.60;;;;;;5071742;28;20115;-70
2021/05/16 03:51:51;;;;;;;7.32;3.47;;;333.00;2329.60;;;;;;5071417;28;20103;-72
2021/05/16 03:54:17;;;;;;;5.53;3.42;;;333.00;2329.60;;;;;;5071776;28;20033;-72
2021/05/16 03:56:43;;;;;;;5.25;3.60;;;333.10;2329.60;;;;;;5071599;28;20464;-68
2021/05/16 03:59:09;;;;;;;5.28;3.47;;;333.10;2329.60;;;;;;5071663;28;20483;-70
2021/05/16 04:01:35;;;;;;;6.18;3.50;;;333.20;2329.60;;;;;;5071505;28;20088;-70
2021/05/16 04:04:02;;;;;;;5.80;3.58;;;333.40;2329.60;;;;;;5071695;28;20021;-73
2021/05/16 04:06:28;;;;;;;6.07;3.65;;;333.40;2329.60;;;;;;5070388;28;20486;-70
2021/05/16 04:08:54;;;;;;;6.80;3.70;;;333.50;2329.60;;;;;;5071395;28;20035;-70
2021/05/16 04:11:20;;;;;;;6.25;3.85;;;333.60;2329.60;;;;;;5063648;28;20832;-70
2021/05/16 04:13:46;;;;;;;7.75;3.63;;;333.70;2329.60;;;;;;5067809;28;20021;-69
2021/05/16 04:16:11;;;;;;;6.18;3.90;;;333.60;2329.60;;;;;;5071441;28;20498;-69
2021/05/16 04:18:38;;;;;;;7.13;4.25;;;333.70;2329.60;;;;;;5058697;28;20056;-69
2021/05/16 04:21:05;;;;;;;7.32;4.28;;;333.70;2329.60;;;;;;5071727;28;20467;-70
2021/05/16 04:23:31;;;;;;;5.72;3.83;;;358.40;2329.60;;;;;;5071327;28;20024;-70
2021/05/16 04:25:57;;;;;;;5.05;3.58;;;358.40;2329.60;;;;;;5071260;28;20503;-72
2021/05/16 04:28:23;;;;;;;6.90;4.35;;;358.60;2329.60;;;;;;5071076;28;20028;-70
2021/05/16 04:30:49;;;;;;;7.28;4.13;;;358.60;2329.60;;;;;;5062572;28;20021;-73
2021/05/16 04:33:15;;;;;;;7.18;4.30;;;358.60;2329.60;;;;;;5056387;28;20059;-69
2021/05/16 04:35:41;;;;;;;6.82;3.88;;;358.60;2329.60;;;;;;5071541;28;20024;-69
2021/05/16 04:38:07;;;;;;;7.07;4.22;;;358.60;2329.60;;;;;;5073687;28;20028;-69
2021/05/16 04:40:33;;;;;;;7.47;3.70;;;358.70;2329.60;;;;;;5075177;28;20019;-69
2021/05/16 04:42:59;;;;;;;6.50;3.80;;;358.70;2329.60;;;;;;5074965;28;20020;-69
2021/05/16 04:45:25;;;;;;;6.80;3.95;;;358.80;2329.60;;;;;;5074594;28;20040;-69
2021/05/16 04:47:51;;;;;;;5.45;3.70;;;358.70;2329.60;;;;;;5074802;28;20029;-69
2021/05/16 04:50:18;;;;;;;7.55;4.20;;;358.70;2329.60;;;;;;5074794;28;20447;-69
2021/05/16 04:52:45;;;;;;;6.85;4.00;;;358.70;2329.60;;;;;;5074921;28;20609;-69
2021/05/16 04:55:12;;;;;;;7.43;4.03;;;358.60;2329.60;;;;;;5074862;28;20024;-69
2021/05/16 04:57:38;;;;;;;6.32;4.15;;;358.70;2329.60;;;;;;5074728;28;20625;-69
2021/05/16 05:00:05;;;;;;;6.28;4.20;;;358.50;2329.60;;;;;;5074622;28;20119;-69
2021/05/16 05:02:33;;;;;;;7.50;4.25;;;358.60;2329.60;;;;;;5074455;28;20032;-72
2021/05/16 05:04:59;;;;;;;7.63;4.30;;;358.60;2329.60;;;;;;5074558;28;20029;-78
2021/05/16 05:07:24;;;;;;;6.35;4.00;;;358.60;2329.60;;;;;;5074617;28;20043;-69
2021/05/16 05:09:50;;;;;;;7.63;4.63;;;358.60;2329.60;;;;;;5074707;28;20423;-70
2021/05/16 05:12:16;;;;;;;5.90;4.00;;;358.70;2329.60;;;;;;5062663;28;20017;-69
2021/05/16 05:14:41;;;;;;;8.68;4.40;;;358.70;2329.60;;;;;;5074501;28;20016;-69
2021/05/16 05:17:07;;;;;;;6.65;4.38;;;358.80;2329.60;;;;;;5073734;28;20029;-69
2021/05/16 05:19:33;;;;;;;6.80;4.45;;;358.90;2329.60;;;;;;5062439;28;20070;-69
2021/05/16 05:21:59;;;;;;;9.73;4.88;;;359.00;2329.60;;;;;;5074577;28;20029;-69
2021/05/16 05:24:24;;;;;;;8.98;4.85;;;359.00;2329.60;;;;;;5074358;28;20062;-69
2021/05/16 05:26:51;;;;;;;7.22;4.25;;;359.00;2329.60;;;;;;5074455;28;20028;-69
2021/05/16 05:29:17;;;;;;;7.65;4.50;;;359.00;2329.60;;;;;;5074041;28;20059;-69
2021/05/16 05:31:44;;;;;;;6.57;4.53;;;359.00;2329.60;;;;;;5065441;28;20024;-68
2021/05/16 05:34:10;;;;;;;7.50;4.68;;;359.00;2329.60;;;;;;5074118;28;20580;-69
2021/05/16 05:36:36;;;;;;;6.97;4.28;;;359.00;2329.60;;;;;;5073961;28;20074;-69
2021/05/16 05:39:02;;;;;;;6.53;4.40;;;359.00;2329.60;;;;;;5074050;28;20033;-68
2021/05/16 05:41:28;;;;;;;6.32;4.15;;;359.00;2329.60;;;;;;5073853;28;20107;-68
2021/05/16 05:43:54;;;;;;;10.27;4.75;;;358.90;2329.60;;;;;;5074164;28;20104;-69
2021/05/16 05:46:20;;;;;;;7.10;4.38;;;359.00;2329.60;;;;;;5073552;28;20067;-70
2021/05/16 05:48:46;;;;;;;13.32;6.45;;;359.00;2329.60;;;;;;5073200;28;20036;-69
2021/05/16 05:51:12;;;;;;;9.40;4.60;;;359.00;2329.60;;;;;;5073743;28;20048;-68
2021/05/16 05:53:40;;;;;;;19.27;9.50;;;359.10;2329.60;;;;;;5073565;28;20031;-69
2021/05/16 05:56:06;;;;;;;8.77;5.10;;;359.10;2329.60;;;;;;5073677;28;20059;-68
2021/05/16 05:58:34;;;;;;;7.55;4.63;;;359.20;2329.60;;;;;;5073637;28;20479;-68
2021/05/16 06:01:01;;;;;;;8.52;5.00;;;359.30;2329.60;;;;;;5073447;28;20020;-68
2021/05/16 06:03:26;;;;;;;24.60;12.73;;;359.30;2329.60;;;;;;5073576;28;20115;-70
2021/05/16 06:05:52;;;;;;;17.65;9.77;;;384.20;2329.60;;;;;;5071976;28;20443;-73
2021/05/16 06:08:19;;;;;;;11.02;5.95;;;384.40;2329.60;;;;;;5073378;28;20025;-73
2021/05/16 06:10:45;;;;;;;9.82;5.35;;;384.40;2329.60;;;;;;5070699;28;20044;-73
2021/05/16 06:13:12;;;;;;;8.43;5.70;;;384.40;2329.60;;;;;;5073221;28;20017;-72
2021/05/16 06:15:37;;;;;;;9.18;5.35;;;384.40;2329.60;;;;;;5073200;28;20024;-69
2021/05/16 06:18:03;;;;;;;8.85;4.70;;;384.60;2329.60;;;;;;5069346;28;20039;-68
2021/05/16 06:20:30;;;;;;;10.15;5.88;;;384.80;2329.60;;;;;;5073400;28;20093;-69
2021/05/16 06:22:55;;;;;;;8.35;5.43;;;409.60;2355.20;;;;;;5076374;28;20024;-69
2021/05/16 06:25:22;;;;;;;8.63;5.57;;;409.80;2355.20;;;;;;5083082;28;20024;-68
2021/05/16 06:27:47;;;;;;;9.52;5.40;;;409.90;2355.20;;;;;;5072717;28;20024;-69
2021/05/16 06:30:14;;;;;;;7.82;4.45;;;410.20;2355.20;;;;;;5070543;28;20028;-70
2021/05/16 06:32:42;;;;;;;13.27;8.43;;;435.20;2355.20;;;;;;5067180;28;20433;-69
2021/05/16 06:35:09;;;;;;;10.00;5.60;;;435.40;2355.20;;;;;;5077222;28;20371;-69
2021/05/16 06:37:35;;;;;;;13.07;7.45;;;435.30;2355.20;;;;;;5088811;28;20536;-66
2021/05/16 06:40:01;;;;;;;10.00;6.22;;;435.50;2355.20;;;;;;5073758;28;20032;-70
2021/05/16 06:42:27;;;;;;;8.52;4.80;;;435.30;2355.20;;;;;;5079104;28;20418;-69
2021/05/16 06:44:53;;;;;;;9.10;4.72;;;435.50;2355.20;;;;;;5086421;28;20031;-70
2021/05/16 06:47:20;;;;;;;8.48;5.65;;;435.50;2355.20;;;;;;5090044;28;20036;-70
2021/05/16 06:49:52;;;;;;;8.57;4.93;;;435.60;2355.20;;;;;;5089127;28;20107;-70
2021/05/16 06:52:19;;;;;;;8.60;5.70;;;435.60;2355.20;;;;;;5085572;28;20028;-69
2021/05/16 06:54:45;;;;;;;8.48;5.07;;;435.70;2355.20;;;;;;5090074;28;20020;-70
2021/05/16 06:57:10;;;;;;;7.55;4.93;;;435.70;2355.20;;;;;;5087935;28;20397;-70
2021/05/16 06:59:36;;;;;;;12.15;6.63;;;435.80;2355.20;;;;;;5090184;28;20257;-69
2021/05/16 07:02:02;;;;;;;9.85;5.65;;;435.80;2355.20;;;;;;5088640;28;20161;-68
2021/05/16 07:04:28;;;;;;;9.50;5.93;;;435.60;2355.20;;;;;;5090266;28;20034;-70
2021/05/16 07:06:54;;;;;;;13.60;7.63;;;435.30;2355.20;;;;;;5088992;28;20105;-69
2021/05/16 07:09:19;;;;;;;13.93;8.15;;;435.30;2355.20;;;;;;5091428;28;20026;-69
2021/05/16 07:11:45;;;;;;;13.23;6.60;;;435.30;2355.20;;;;;;5090496;28;20027;-69
2021/05/16 07:14:11;;;;;;;11.93;7.45;;;435.30;2355.20;;;;;;5088700;28;20066;-69
2021/05/16 07:16:37;;;;;;;13.20;6.78;;;435.20;2355.20;;;;;;5088225;28;20105;-69
2021/05/16 07:19:03;;;;;;;12.48;6.78;;;435.20;2355.20;;;;;;5087085;28;20025;-70
2021/05/16 07:21:29;;;;;;;13.93;7.00;;;410.50;2355.20;;;;;;5090327;28;20028;-68
2021/05/16 07:23:55;;;;;;;13.07;6.28;;;435.20;2355.20;;;;;;5087582;28;20523;-68
2021/05/16 07:26:22;;;;;;;12.25;7.30;;;410.50;2355.20;;;;;;5073850;28;20020;-68
2021/05/16 07:28:48;;;;;;;20.33;11.60;;;410.50;2355.20;;;;;;5078871;28;20038;-69
2021/05/16 07:31:13;;;;;;;12.07;7.85;;;435.30;2355.20;;;;;;5087918;28;20024;-70
2021/05/16 07:33:40;;;;;;;10.07;5.20;;;435.30;2355.20;;;;;;5087324;28;20478;-69
2021/05/16 07:36:06;;;;;;;8.52;5.10;;;435.50;2355.20;;;;;;5086260;28;20047;-69
2021/05/16 07:38:32;;;;;;;9.25;5.40;;;435.60;2355.20;;;;;;5082362;28;20020;-70
2021/05/16 07:40:58;;;;;;;8.82;4.78;;;435.70;2355.20;;;;;;5087408;28;20039;-69
2021/05/16 07:43:25;;;;;;;19.25;11.43;;;436.00;2355.20;;;;;;5082994;28;20035;-68
2021/05/16 07:45:51;;;;;;;14.13;8.70;;;436.00;2355.20;;;;;;5071496;28;20101;-71
2021/05/16 07:48:17;;;;;;;9.13;5.60;;;461.00;2380.80;;;;;;5071331;28;20059;-69
2021/05/16 07:50:43;;;;;;;7.63;5.13;;;461.10;2380.80;;;;;;5080946;28;20035;-69
2021/05/16 07:53:09;;;;;;;7.80;4.68;;;461.50;2380.80;;;;;;5085410;28;20020;-72
2021/05/16 07:55:37;;;;;;;8.02;4.45;;;461.50;2380.80;;;;;;5090241;28;20012;-69
2021/05/16 07:58:03;;;;;;;7.03;4.40;;;486.50;2380.80;;;;;;5078763;28;20064;-69
2021/05/16 08:00:29;;;;;;;8.07;4.50;;;461.70;2380.80;;;;;;5071792;28;20052;-71
2021/05/16 08:02:55;;;;;;;7.75;4.22;;;486.50;2380.80;;;;;;5071562;28;20100;-69
2021/05/16 08:05:21;;;;;;;8.82;4.38;;;486.60;2380.80;;;;;;5071656;28;20488;-71
2021/05/16 08:07:47;;;;;;;7.82;4.32;;;486.70;2380.80;;;;;;5071498;28;20032;-70
2021/05/16 08:10:14;;;;;;;6.68;4.00;;;486.80;2380.80;;;;;;5071537;28;20375;-71
2021/05/16 08:12:40;;;;;;;6.38;3.72;;;486.50;2380.80;;;;;;5064567;28;20544;-70
2021/05/16 08:15:07;;;;;;;7.43;3.70;;;486.50;2380.80;;;;;;5075532;28;20048;-70
2021/05/16 08:17:33;;;;;;;6.03;4.00;;;486.50;2380.80;;;;;;5074013;28;20025;-72
2021/05/16 08:20:00;;;;;;;6.57;3.83;;;486.80;2380.80;;;;;;5069437;28;20032;-79
2021/05/16 08:22:26;;;;;;;7.22;4.20;;;486.90;2380.80;;;;;;5076506;28;20032;-73
2021/05/16 08:24:51;;;;;;;7.45;4.15;;;487.30;2380.80;;;;;;5080295;28;20047;-75
2021/05/16 08:27:17;;;;;;;9.75;4.63;;;512.00;2380.80;;;;;;5091871;28;20027;-76
2021/05/16 08:29:45;;;;;;;7.78;4.63;;;512.00;2380.80;;;;;;5087848;28;20025;-79
2021/05/16 08:32:12;;;;;;;12.73;5.93;;;487.30;2380.80;;;;;;5085636;28;20466;-80
2021/05/16 08:34:38;;;;;;;9.48;4.78;;;487.30;2380.80;;;;;;5086854;28;20064;-80
2021/05/16 08:37:07;;;;;;;9.15;5.20;;;512.10;2380.80;;;;;;5087995;28;20051;-79
2021/05/16 08:39:33;;;;;;;9.25;5.15;;;512.10;2380.80;;;;;;5090076;28;20121;-73
2021/05/16 08:41:58;;;;;;;10.57;5.07;;;512.30;2380.80;;;;;;5087702;28;20509;-73
2021/05/16 08:44:24;;;;;;;10.43;5.53;;;512.40;2380.80;;;;;;5091355;28;20016;-75
2021/05/16 08:46:51;;;;;;;7.40;4.85;;;512.60;2380.80;;;;;;5088083;28;20478;-77
2021/05/16 08:49:17;;;;;;;7.57;4.40;;;512.80;2380.80;;;;;;5091557;28;20020;-72
2021/05/16 08:51:49;;;;;;;6.63;4.45;;;537.80;2406.40;;;;;;5085932;28;20055;-79
2021/05/16 08:54:23;;;;;;;6.97;4.88;;;512.90;2380.80;;;;;;5088069;28;20035;-73
2021/05/16 08:56:50;;;;;;;8.05;4.28;;;537.60;2406.40;;;;;;5087269;28;20487;-72
2021/05/16 08:59:17;;;;;;;6.85;3.95;;;512.80;2380.80;;;;;;5090190;28;20024;-77
2021/05/16 09:02:00;;;;;;;7.20;3.95;;;512.80;2380.80;;;;;;5087844;28;20532;-80
2021/05/16 09:04:39;;;;;;;7.70;4.15;;;512.70;2380.80;;;;;;5087962;28;20479;-82
2021/05/16 09:07:05;;;;;;;9.27;4.05;;;538.10;2406.40;;;;;;5086372;28;20500;-77
2021/05/16 09:09:36;;;;;;;5.57;3.90;;;563.30;2432.00;;;;;;5090691;28;20028;-78
2021/05/16 09:12:14;;;;;;;7.25;3.85;;;563.70;2432.00;;;;;;5089588;28;20016;-79
2021/05/16 09:14:57;;;;;;;6.13;3.90;;;588.90;2432.00;;;;;;5088254;28;20024;-78
2021/05/16 09:17:30;;;;;;;6.45;4.20;;;563.90;2432.00;;;;;;5088282;28;20025;-70
2021/05/16 09:19:57;;;;;;;7.32;4.95;;;564.10;2432.00;;;;;;5088202;28;20069;-71
2021/05/16 09:22:34;;;;;;;7.10;4.20;;;564.00;2432.00;;;;;;5086258;28;20025;-77
2021/05/16 09:25:13;;;;;;;4.80;3.45;;;563.80;2432.00;;;;;;5086028;28;20119;-77
2021/05/16 09:27:40;;;;;;;4.30;3.20;;;538.50;2406.40;;;;;;5090174;28;20430;-73
2021/05/16 09:30:18;;;;;;;6.88;3.40;;;538.50;2406.40;;;;;;5084635;28;20024;-82
2021/05/16 09:32:57;;;;;;;5.78;3.20;;;538.20;2406.40;;;;;;5089858;28;20478;-81
2021/05/16 09:35:36;;;;;;;8.82;4.45;;;538.20;2406.40;;;;;;5093024;28;20032;-71
2021/05/16 09:38:09;;;;;;;5.60;3.60;;;538.00;2406.40;;;;;;5091085;28;20028;-79
2021/05/16 09:40:57;;;;;;;5.70;3.70;;;512.90;2380.80;;;;;;5091473;28;20112;-76
2021/05/16 09:43:28;;;;;;;7.05;3.70;;;512.60;2380.80;;;;;;5086272;28;20028;-75
2021/05/16 09:45:54;;;;;;;7.43;4.25;;;512.20;2380.80;;;;;;5091078;28;20032;-72
2021/05/16 09:48:28;;;;;;;9.43;4.60;;;486.90;2380.80;;;;;;5089323;28;20549;-71
2021/05/16 09:51:09;;;;;;;7.13;5.00;;;486.80;2380.80;;;;;;5090575;28;20020;-69
2021/05/16 09:53:47;;;;;;;7.25;4.63;;;486.60;2380.80;;;;;;5090085;28;20024;-71
2021/05/16 09:56:19;;;;;;;10.20;6.60;;;486.70;2380.80;;;;;;5090025;28;20021;-71
2021/05/16 09:58:45;;;;;;;10.15;6.22;;;486.80;2380.80;;;;;;5088439;28;20040;-76
2021/05/16 10:01:13;;;;;;;8.48;5.80;;;512.00;2380.80;;;;;;5088549;28;20027;-75
2021/05/16 10:03:39;;;;;;;7.45;4.80;;;512.00;2380.80;;;;;;5087963;28;20029;-73
2021/05/16 10:06:05;;;;;;;9.35;6.53;;;512.60;2380.80;;;;;;5089219;28;20032;-73
2021/05/16 10:08:31;;;;;;;7.47;5.60;;;512.90;2380.80;;;;;;5089752;28;20085;-71
2021/05/16 10:10:58;;;;;;;9.27;5.47;;;537.60;2406.40;;;;;;5085729;28;20024;-69
2021/05/16 10:13:27;;;;;;;12.75;7.93;;;537.70;2406.40;;;;;;5080731;28;20158;-73
2021/05/16 10:15:55;;;;;;;10.27;6.30;;;538.30;2406.40;;;;;;5081061;28;20062;-72
2021/05/16 10:18:24;;;;;;;6.32;4.47;;;563.20;2432.00;;;;;;5086877;28;20462;-77
2021/05/16 10:20:50;;;;;;;9.45;4.90;;;563.70;2432.00;;;;;;5086122;28;20048;-73
2021/05/16 10:23:37;;;;;;;6.68;4.40;;;588.80;2432.00;;;;;;5086384;28;20474;-70
2021/05/16 10:26:20;;;;;;;9.35;6.20;;;563.90;2432.00;;;;;;5085327;28;20107;-71
2021/05/16 10:29:13;;;;;;;8.30;5.32;;;588.80;2432.00;;;;;;5083395;28;20460;-71
2021/05/16 10:31:45;;;;;;;6.70;4.88;;;589.40;2432.00;;;;;;5073601;28;20393;-67
2021/05/16 10:34:30;;;;;;;7.68;4.60;;;614.60;2432.00;;;;;;5088288;28;20043;-68
2021/05/16 10:37:05;;;;;;;6.63;4.80;;;589.60;2432.00;;;;;;5087434;28;20046;-70
2021/05/16 10:39:43;;;;;;;5.85;4.30;;;589.60;2432.00;;;;;;5087432;28;20028;-70
2021/05/16 10:42:16;;;;;;;5.22;3.90;;;589.20;2432.00;;;;;;5086108;28;20033;-69
2021/05/16 10:45:02;;;;;;;6.22;4.13;;;589.10;2432.00;;;;;;5087917;28;20038;-70
2021/05/16 10:47:44;;;;;;;6.10;4.47;;;589.30;2432.00;;;;;;5078000;28;20042;-70
2021/05/16 10:50:10;;;;;;;8.45;5.10;;;589.60;2432.00;;;;;;5076074;28;20028;-71
2021/05/16 10:52:38;;;;;;;9.02;4.72;;;589.70;2432.00;;;;;;5072666;28;20044;-70
2021/05/16 10:55:06;;;;;;;6.78;5.40;;;589.60;2432.00;;;;;;5079835;28;20076;-70
2021/05/16 10:57:37;;;;;;;6.40;4.68;;;589.30;2432.00;;;;;;5082427;28;20028;-74
2021/05/16 11:00:30;;;;;;;7.70;4.70;;;588.90;2432.00;;;;;;5084899;28;20023;-70
2021/05/16 11:03:07;;;;;;;10.73;8.80;;;563.70;2432.00;;;;;;5080000;28;20122;-72
2021/05/16 11:05:48;;;;;;;8.30;5.88;;;563.30;2432.00;;;;;;5085524;28;20398;-77
2021/05/16 11:08:17;;;;;;;9.52;6.90;;;538.10;2406.40;;;;;;5093130;28;20036;-70
2021/05/16 11:10:44;;;;;;;8.52;5.60;;;537.80;2406.40;;;;;;5087945;28;20017;-70
2021/05/16 11:13:18;;;;;;;6.25;4.00;;;537.60;2406.40;;;;;;5086605;28;20114;-69
2021/05/16 11:16:07;;;;;;;5.65;3.60;;;512.90;2380.80;;;;;;5087962;28;20071;-70
2021/05/16 11:18:34;;;;;;;5.85;3.70;;;512.60;2380.80;;;;;;5090297;28;20393;-69
2021/05/16 11:21:03;;;;;;;6.43;5.38;;;512.50;2380.80;;;;;;5089829;28;20023;-69
2021/05/16 11:23:29;;;;;;;37.83;22.45;;;512.40;2380.80;;;;;;5089949;28;20047;-69
2021/05/16 11:26:10;;;;;;;273.63;169.63;;;512.40;2380.80;;;;;;5087185;28;20031;-69
2021/05/16 11:28:45;;;;;;;102.53;68.43;;;512.20;2380.80;;;;;;5087167;28;20039;-69
2021/05/16 11:31:14;;;;;;;54.35;43.30;;;512.00;2380.80;;;;;;5070357;28;20098;-69
2021/05/16 11:33:41;;;;;;;17.75;15.77;;;512.20;2380.80;;;;;;5092895;28;20027;-70
2021/05/16 11:36:08;;;;;;;13.98;11.77;;;512.50;2380.80;;;;;;5090211;28;20015;-70
2021/05/16 11:38:35;;;;;;;7.03;5.70;;;537.90;2406.40;;;;;;5082217;28;20095;-69
2021/05/16 11:41:02;;;;;;;8.13;6.30;;;563.20;2432.00;;;;;;5086208;28;20509;-70
2021/05/16 11:43:33;;;;;;;7.63;5.25;;;563.80;2432.00;;;;;;5082466;28;20035;-68
2021/05/16 11:46:01;;;;;;;7.28;4.47;;;588.80;2432.00;;;;;;5088190;28;20044;-69
2021/05/16 11:48:36;;;;;;;7.18;5.40;;;589.10;2432.00;;;;;;5085263;28;20080;-73
2021/05/16 11:51:08;;;;;;;5.80;4.57;;;589.20;2432.00;;;;;;5087443;28;20024;-69
2021/05/16 11:53:39;;;;;;;6.75;5.70;;;589.30;2432.00;;;;;;5086413;28;20235;-70
2021/05/16 11:56:07;;;;;;;6.60;4.43;;;589.40;2432.00;;;;;;5078128;28;20036;-69
2021/05/16 11:58:37;;;;;;;6.65;4.30;;;589.50;2432.00;;;;;;5070072;28;20368;-72
2021/05/16 12:01:10;;;;;;;;;;;589.70;2432.00;;;;;;5079249;28;20020;-75
2021/05/16 12:03:49;;;;;;;5.85;3.97;;;589.40;2432.00;;;;;;5088461;28;19998;-72
2021/05/16 12:06:15;;;;;;;6.90;4.15;;;589.40;2432.00;;;;;;5082891;28;20045;-74
2021/05/16 12:08:44;;;;;;;6.03;4.25;;;589.70;2432.00;;;;;;5083773;28;20048;-68
2021/05/16 12:11:16;;;;;;;6.50;4.28;;;614.70;2432.00;;;;;;5081340;28;20035;-69
2021/05/16 12:13:42;;;;;;;8.63;7.50;;;615.00;2432.00;;;;;;5086757;28;20028;-69
2021/05/16 12:16:14;;;;;;;9.75;7.65;;;614.40;2432.00;;;;;;5090109;28;20024;-67
2021/05/16 12:18:41;;;;;;;13.13;9.25;;;614.50;2432.00;;;;;;5085489;28;20024;-70
2021/05/16 12:21:07;;;;;;;9.23;7.78;;;589.70;2432.00;;;;;;5089991;28;20039;-68